sensor_id;sensor_type;location;lat;lon;timestamp;temperature;humidity
33827;DHT22;20128;45.582;5.298;2024-01-16T00:00:16;4.40;95.60
33827;DHT22;20128;45.582;5.298;2024-01-16T00:02:42;4.40;95.40
33827;DHT22;20128;45.582;5.298;2024-01-16T00:05:08;4.40;95.50
33827;DHT22;20128;45.582;5.298;2024-01-16T00:07:38;4.40;95.30
33827;DHT22;20128;45.582;5.298;2024-01-16T00:10:04;4.40;95.50
33827;DHT22;20128;45.582;5.298;2024-01-16T00:12:30;4.30;95.70
33827;DHT22;20128;45.582;5.298;2024-01-16T00:14:55;4.40;95.70
33827;DHT22;20128;45.582;5.298;2024-01-16T00:17:21;4.40;95.70
33827;DHT22;20128;45.582;5.298;2024-01-16T00:19:47;4.40;95.50
33827;DHT22;20128;45.582;5.298;2024-01-16T00:22:12;4.30;95.60
33827;DHT22;20128;45.582;5.298;2024-01-16T00:24:38;4.30;95.80
33827;DHT22;20128;45.582;5.298;2024-01-16T00:27:04;4.30;95.90
33827;DHT22;20128;45.582;5.298;2024-01-16T00:29:29;4.30;96.00
33827;DHT22;20128;45.582;5.298;2024-01-16T00:31:56;4.30;96.10
33827;DHT22;20128;45.582;5.298;2024-01-16T00:34:21;4.40;96.00
33827;DHT22;20128;45.582;5.298;2024-01-16T00:36:47;4.30;96.00
33827;DHT22;20128;45.582;5.298;2024-01-16T00:39:13;4.40;96.10
33827;DHT22;20128;45.582;5.298;2024-01-16T00:41:39;4.40;96.20
33827;DHT22;20128;45.582;5.298;2024-01-16T00:44:04;4.40;96.10
33827;DHT22;20128;45.582;5.298;2024-01-16T00:46:30;4.40;96.10
33827;DHT22;20128;45.582;5.298;2024-01-16T00:48:56;4.50;96.10
33827;DHT22;20128;45.582;5.298;2024-01-16T00:51:22;4.50;96.20
33827;DHT22;20128;45.582;5.298;2024-01-16T00:53:47;4.50;96.10
33827;DHT22;20128;45.582;5.298;2024-01-16T00:56:13;4.40;95.90
33827;DHT22;20128;45.582;5.298;2024-01-16T00:58:39;4.40;96.10
33827;DHT22;20128;45.582;5.298;2024-01-16T01:01:04;4.40;96.20
33827;DHT22;20128;45.582;5.298;2024-01-16T01:03:30;4.40;96.20
33827;DHT22;20128;45.582;5.298;2024-01-16T01:05:56;4.30;96.20
33827;DHT22;20128;45.582;5.298;2024-01-16T01:08:22;4.30;96.20
33827;DHT22;20128;45.582;5.298;2024-01-16T01:10:47;4.30;96.20
33827;DHT22;20128;45.582;5.298;2024-01-16T01:13:13;4.30;96.30
33827;DHT22;20128;45.582;5.298;2024-01-16T01:15:39;4.30;96.40
33827;DHT22;20128;45.582;5.298;2024-01-16T01:18:05;4.30;96.50
33827;DHT22;20128;45.582;5.298;2024-01-16T01:20:31;4.30;96.50
33827;DHT22;20128;45.582;5.298;2024-01-16T01:22:57;4.30;96.50
33827;DHT22;20128;45.582;5.298;2024-01-16T01:25:23;4.30;96.50
33827;DHT22;20128;45.582;5.298;2024-01-16T01:27:51;4.30;96.40
33827;DHT22;20128;45.582;5.298;2024-01-16T01:30:17;4.30;96.50
33827;DHT22;20128;45.582;5.298;2024-01-16T01:32:43;4.30;96.40
33827;DHT22;20128;45.582;5.298;2024-01-16T01:35:09;4.20;96.10
33827;DHT22;20128;45.582;5.298;2024-01-16T01:37:37;4.20;95.80
33827;DHT22;20128;45.582;5.298;2024-01-16T01:40:03;4.20;96.10
33827;DHT22;20128;45.582;5.298;2024-01-16T01:42:28;4.10;96.20
33827;DHT22;20128;45.582;5.298;2024-01-16T01:44:55;4.20;96.40
33827;DHT22;20128;45.582;5.298;2024-01-16T01:47:20;4.20;96.50
33827;DHT22;20128;45.582;5.298;2024-01-16T01:49:46;4.20;96.50
33827;DHT22;20128;45.582;5.298;2024-01-16T01:52:12;4.20;96.40
33827;DHT22;20128;45.582;5.298;2024-01-16T01:54:38;4.30;96.40
33827;DHT22;20128;45.582;5.298;2024-01-16T01:57:08;4.30;96.40
33827;DHT22;20128;45.582;5.298;2024-01-16T01:59:34;4.30;96.10
33827;DHT22;20128;45.582;5.298;2024-01-16T02:02:00;4.30;96.00
33827;DHT22;20128;45.582;5.298;2024-01-16T02:04:26;4.30;96.10
33827;DHT22;20128;45.582;5.298;2024-01-16T02:06:53;4.20;95.80
33827;DHT22;20128;45.582;5.298;2024-01-16T02:09:19;4.20;96.00
33827;DHT22;20128;45.582;5.298;2024-01-16T02:11:45;4.20;96.20
33827;DHT22;20128;45.582;5.298;2024-01-16T02:14:11;4.20;96.30
33827;DHT22;20128;45.582;5.298;2024-01-16T02:16:39;4.20;96.40
33827;DHT22;20128;45.582;5.298;2024-01-16T02:19:06;4.20;96.40
33827;DHT22;20128;45.582;5.298;2024-01-16T02:21:38;4.20;96.50
33827;DHT22;20128;45.582;5.298;2024-01-16T02:24:06;4.20;95.80
33827;DHT22;20128;45.582;5.298;2024-01-16T02:26:33;4.10;95.50
33827;DHT22;20128;45.582;5.298;2024-01-16T02:29:01;4.10;95.50
33827;DHT22;20128;45.582;5.298;2024-01-16T02:31:27;4.00;95.40
33827;DHT22;20128;45.582;5.298;2024-01-16T02:33:53;3.90;95.00
33827;DHT22;20128;45.582;5.298;2024-01-16T02:36:18;3.90;95.30
33827;DHT22;20128;45.582;5.298;2024-01-16T02:38:44;3.90;95.50
33827;DHT22;20128;45.582;5.298;2024-01-16T02:41:11;3.90;95.50
33827;DHT22;20128;45.582;5.298;2024-01-16T02:43:37;3.90;95.70
33827;DHT22;20128;45.582;5.298;2024-01-16T02:46:02;3.90;95.90
33827;DHT22;20128;45.582;5.298;2024-01-16T02:48:29;3.90;95.90
33827;DHT22;20128;45.582;5.298;2024-01-16T02:50:54;3.90;95.70
33827;DHT22;20128;45.582;5.298;2024-01-16T02:53:20;3.90;95.90
33827;DHT22;20128;45.582;5.298;2024-01-16T02:55:48;3.90;96.00
33827;DHT22;20128;45.582;5.298;2024-01-16T02:58:14;4.00;96.10
33827;DHT22;20128;45.582;5.298;2024-01-16T03:00:40;4.00;96.10
33827;DHT22;20128;45.582;5.298;2024-01-16T03:03:05;4.00;96.00
33827;DHT22;20128;45.582;5.298;2024-01-16T03:05:31;4.00;96.10
33827;DHT22;20128;45.582;5.298;2024-01-16T03:07:57;4.00;96.10
33827;DHT22;20128;45.582;5.298;2024-01-16T03:10:22;4.00;96.20
33827;DHT22;20128;45.582;5.298;2024-01-16T03:12:48;4.00;95.90
33827;DHT22;20128;45.582;5.298;2024-01-16T03:15:13;3.90;96.00
33827;DHT22;20128;45.582;5.298;2024-01-16T03:17:40;3.90;96.10
33827;DHT22;20128;45.582;5.298;2024-01-16T03:20:06;3.90;96.20
33827;DHT22;20128;45.582;5.298;2024-01-16T03:22:32;3.90;96.10
33827;DHT22;20128;45.582;5.298;2024-01-16T03:24:57;4.00;96.10
33827;DHT22;20128;45.582;5.298;2024-01-16T03:27:23;4.00;96.10
33827;DHT22;20128;45.582;5.298;2024-01-16T03:29:49;3.90;96.10
33827;DHT22;20128;45.582;5.298;2024-01-16T03:32:15;3.90;96.10
33827;DHT22;20128;45.582;5.298;2024-01-16T03:34:41;3.90;95.40
33827;DHT22;20128;45.582;5.298;2024-01-16T03:37:06;3.90;95.50
33827;DHT22;20128;45.582;5.298;2024-01-16T03:39:32;3.90;95.60
33827;DHT22;20128;45.582;5.298;2024-01-16T03:41:57;3.90;95.30
33827;DHT22;20128;45.582;5.298;2024-01-16T03:44:23;3.90;95.10
33827;DHT22;20128;45.582;5.298;2024-01-16T03:46:49;3.80;95.30
33827;DHT22;20128;45.582;5.298;2024-01-16T03:49:14;3.80;95.40
33827;DHT22;20128;45.582;5.298;2024-01-16T03:51:40;3.80;95.40
33827;DHT22;20128;45.582;5.298;2024-01-16T03:54:09;3.70;95.20
33827;DHT22;20128;45.582;5.298;2024-01-16T03:56:35;3.70;95.20
33827;DHT22;20128;45.582;5.298;2024-01-16T03:59:01;3.70;95.20
33827;DHT22;20128;45.582;5.298;2024-01-16T04:01:33;3.70;95.30
33827;DHT22;20128;45.582;5.298;2024-01-16T04:03:59;3.70;95.50
33827;DHT22;20128;45.582;5.298;2024-01-16T04:06:25;3.70;95.60
33827;DHT22;20128;45.582;5.298;2024-01-16T04:08:52;3.70;95.80
33827;DHT22;20128;45.582;5.298;2024-01-16T04:11:17;3.60;95.70
33827;DHT22;20128;45.582;5.298;2024-01-16T04:13:43;3.60;95.90
33827;DHT22;20128;45.582;5.298;2024-01-16T04:16:09;3.60;95.90
33827;DHT22;20128;45.582;5.298;2024-01-16T04:18:38;3.50;96.00
33827;DHT22;20128;45.582;5.298;2024-01-16T04:21:04;3.60;96.10
33827;DHT22;20128;45.582;5.298;2024-01-16T04:23:30;3.60;96.10
33827;DHT22;20128;45.582;5.298;2024-01-16T04:25:55;3.70;96.10
33827;DHT22;20128;45.582;5.298;2024-01-16T04:28:21;3.70;95.90
33827;DHT22;20128;45.582;5.298;2024-01-16T04:30:47;3.70;95.70
33827;DHT22;20128;45.582;5.298;2024-01-16T04:33:12;3.70;95.50
33827;DHT22;20128;45.582;5.298;2024-01-16T04:35:38;3.60;95.20
33827;DHT22;20128;45.582;5.298;2024-01-16T04:38:03;3.60;95.20
33827;DHT22;20128;45.582;5.298;2024-01-16T04:40:29;3.50;95.30
33827;DHT22;20128;45.582;5.298;2024-01-16T04:42:55;3.60;95.50
33827;DHT22;20128;45.582;5.298;2024-01-16T04:45:20;3.50;95.60
33827;DHT22;20128;45.582;5.298;2024-01-16T04:47:46;3.60;95.80
33827;DHT22;20128;45.582;5.298;2024-01-16T04:50:12;3.60;96.00
33827;DHT22;20128;45.582;5.298;2024-01-16T04:52:37;3.60;96.10
33827;DHT22;20128;45.582;5.298;2024-01-16T04:55:03;3.60;96.00
33827;DHT22;20128;45.582;5.298;2024-01-16T04:57:29;3.60;95.90
33827;DHT22;20128;45.582;5.298;2024-01-16T04:59:55;3.60;96.00
33827;DHT22;20128;45.582;5.298;2024-01-16T05:02:20;3.70;96.10
33827;DHT22;20128;45.582;5.298;2024-01-16T05:04:46;3.70;96.20
33827;DHT22;20128;45.582;5.298;2024-01-16T05:07:15;3.60;96.20
33827;DHT22;20128;45.582;5.298;2024-01-16T05:09:41;3.70;96.20
33827;DHT22;20128;45.582;5.298;2024-01-16T05:12:06;3.70;96.20
33827;DHT22;20128;45.582;5.298;2024-01-16T05:14:32;3.70;96.20
33827;DHT22;20128;45.582;5.298;2024-01-16T05:16:57;3.70;96.20
33827;DHT22;20128;45.582;5.298;2024-01-16T05:19:23;3.80;96.20
33827;DHT22;20128;45.582;5.298;2024-01-16T05:21:49;3.80;96.30
33827;DHT22;20128;45.582;5.298;2024-01-16T05:24:14;3.80;96.20
33827;DHT22;20128;45.582;5.298;2024-01-16T05:26:40;3.80;96.20
33827;DHT22;20128;45.582;5.298;2024-01-16T05:29:05;3.80;96.00
33827;DHT22;20128;45.582;5.298;2024-01-16T05:31:32;3.90;96.00
33827;DHT22;20128;45.582;5.298;2024-01-16T05:33:57;3.80;96.10
33827;DHT22;20128;45.582;5.298;2024-01-16T05:36:23;3.80;96.00
33827;DHT22;20128;45.582;5.298;2024-01-16T05:38:50;3.80;96.00
33827;DHT22;20128;45.582;5.298;2024-01-16T05:41:15;3.90;95.80
33827;DHT22;20128;45.582;5.298;2024-01-16T05:43:41;3.80;95.50
33827;DHT22;20128;45.582;5.298;2024-01-16T05:46:07;3.80;95.40
33827;DHT22;20128;45.582;5.298;2024-01-16T05:48:32;3.70;95.50
33827;DHT22;20128;45.582;5.298;2024-01-16T05:50:58;3.70;95.70
33827;DHT22;20128;45.582;5.298;2024-01-16T05:53:23;3.60;95.90
33827;DHT22;20128;45.582;5.298;2024-01-16T05:55:49;3.60;95.90
33827;DHT22;20128;45.582;5.298;2024-01-16T05:58:15;3.60;96.00
33827;DHT22;20128;45.582;5.298;2024-01-16T06:00:40;3.60;96.10
33827;DHT22;20128;45.582;5.298;2024-01-16T06:03:06;3.60;96.10
33827;DHT22;20128;45.582;5.298;2024-01-16T06:05:32;3.60;96.10
33827;DHT22;20128;45.582;5.298;2024-01-16T06:07:57;3.60;95.80
33827;DHT22;20128;45.582;5.298;2024-01-16T06:10:23;3.60;95.70
33827;DHT22;20128;45.582;5.298;2024-01-16T06:12:49;3.60;95.90
33827;DHT22;20128;45.582;5.298;2024-01-16T06:15:14;3.60;95.80
33827;DHT22;20128;45.582;5.298;2024-01-16T06:17:40;3.50;95.90
33827;DHT22;20128;45.582;5.298;2024-01-16T06:20:06;3.50;96.10
33827;DHT22;20128;45.582;5.298;2024-01-16T06:22:32;3.50;96.20
33827;DHT22;20128;45.582;5.298;2024-01-16T06:24:57;3.60;96.30
33827;DHT22;20128;45.582;5.298;2024-01-16T06:27:23;3.70;96.30
33827;DHT22;20128;45.582;5.298;2024-01-16T06:29:49;3.70;96.20
33827;DHT22;20128;45.582;5.298;2024-01-16T06:32:16;3.70;96.30
33827;DHT22;20128;45.582;5.298;2024-01-16T06:34:42;3.70;96.20
33827;DHT22;20128;45.582;5.298;2024-01-16T06:37:07;3.70;96.20
33827;DHT22;20128;45.582;5.298;2024-01-16T06:39:34;3.70;96.20
33827;DHT22;20128;45.582;5.298;2024-01-16T06:41:59;3.70;96.10
33827;DHT22;20128;45.582;5.298;2024-01-16T06:44:25;3.70;95.90
33827;DHT22;20128;45.582;5.298;2024-01-16T06:46:51;3.60;95.60
33827;DHT22;20128;45.582;5.298;2024-01-16T06:49:17;3.60;95.70
33827;DHT22;20128;45.582;5.298;2024-01-16T06:51:42;3.60;95.60
33827;DHT22;20128;45.582;5.298;2024-01-16T06:54:08;3.50;95.70
33827;DHT22;20128;45.582;5.298;2024-01-16T06:56:34;3.50;95.90
33827;DHT22;20128;45.582;5.298;2024-01-16T06:58:59;3.40;96.00
33827;DHT22;20128;45.582;5.298;2024-01-16T07:01:26;3.40;96.20
33827;DHT22;20128;45.582;5.298;2024-01-16T07:03:52;3.40;96.40
33827;DHT22;20128;45.582;5.298;2024-01-16T07:06:18;3.40;96.30
33827;DHT22;20128;45.582;5.298;2024-01-16T07:08:43;3.40;96.20
33827;DHT22;20128;45.582;5.298;2024-01-16T07:11:09;3.40;96.20
33827;DHT22;20128;45.582;5.298;2024-01-16T07:13:39;3.30;96.30
33827;DHT22;20128;45.582;5.298;2024-01-16T07:16:06;3.20;96.30
33827;DHT22;20128;45.582;5.298;2024-01-16T07:18:34;3.20;96.40
33827;DHT22;20128;45.582;5.298;2024-01-16T07:21:00;3.10;96.60
33827;DHT22;20128;45.582;5.298;2024-01-16T07:23:25;3.10;96.70
33827;DHT22;20128;45.582;5.298;2024-01-16T07:25:51;3.00;96.80
33827;DHT22;20128;45.582;5.298;2024-01-16T07:28:16;3.00;96.70
33827;DHT22;20128;45.582;5.298;2024-01-16T07:30:42;3.00;96.80
33827;DHT22;20128;45.582;5.298;2024-01-16T07:33:08;3.00;97.00
33827;DHT22;20128;45.582;5.298;2024-01-16T07:35:33;3.10;97.10
33827;DHT22;20128;45.582;5.298;2024-01-16T07:37:59;3.10;97.00
33827;DHT22;20128;45.582;5.298;2024-01-16T07:40:25;3.10;97.10
33827;DHT22;20128;45.582;5.298;2024-01-16T07:42:51;3.20;97.20
33827;DHT22;20128;45.582;5.298;2024-01-16T07:45:16;3.10;97.20
33827;DHT22;20128;45.582;5.298;2024-01-16T07:47:42;3.00;97.10
33827;DHT22;20128;45.582;5.298;2024-01-16T07:50:08;3.10;97.20
33827;DHT22;20128;45.582;5.298;2024-01-16T07:52:34;3.10;97.40
33827;DHT22;20128;45.582;5.298;2024-01-16T07:54:59;3.10;97.20
33827;DHT22;20128;45.582;5.298;2024-01-16T07:57:25;3.20;97.20
33827;DHT22;20128;45.582;5.298;2024-01-16T07:59:50;3.20;97.20
33827;DHT22;20128;45.582;5.298;2024-01-16T08:02:16;3.10;97.10
33827;DHT22;20128;45.582;5.298;2024-01-16T08:04:42;3.20;96.90
33827;DHT22;20128;45.582;5.298;2024-01-16T08:07:08;3.30;96.80
33827;DHT22;20128;45.582;5.298;2024-01-16T08:09:33;3.20;96.90
33827;DHT22;20128;45.582;5.298;2024-01-16T08:12:00;3.20;96.90
33827;DHT22;20128;45.582;5.298;2024-01-16T08:14:27;3.20;96.70
33827;DHT22;20128;45.582;5.298;2024-01-16T08:16:54;3.20;96.70
33827;DHT22;20128;45.582;5.298;2024-01-16T08:19:19;3.20;96.70
33827;DHT22;20128;45.582;5.298;2024-01-16T08:21:45;3.20;96.60
33827;DHT22;20128;45.582;5.298;2024-01-16T08:24:11;3.10;96.60
33827;DHT22;20128;45.582;5.298;2024-01-16T08:26:36;3.10;96.70
33827;DHT22;20128;45.582;5.298;2024-01-16T08:29:02;3.10;96.90
33827;DHT22;20128;45.582;5.298;2024-01-16T08:31:27;3.10;97.20
33827;DHT22;20128;45.582;5.298;2024-01-16T08:33:53;3.10;97.20
33827;DHT22;20128;45.582;5.298;2024-01-16T08:36:21;3.10;97.30
33827;DHT22;20128;45.582;5.298;2024-01-16T08:38:47;3.20;97.50
33827;DHT22;20128;45.582;5.298;2024-01-16T08:41:13;3.20;97.60
33827;DHT22;20128;45.582;5.298;2024-01-16T08:43:38;3.10;97.70
33827;DHT22;20128;45.582;5.298;2024-01-16T08:46:04;3.20;97.70
33827;DHT22;20128;45.582;5.298;2024-01-16T08:48:30;3.20;97.50
33827;DHT22;20128;45.582;5.298;2024-01-16T08:50:55;3.30;97.70
33827;DHT22;20128;45.582;5.298;2024-01-16T08:53:21;3.30;97.40
33827;DHT22;20128;45.582;5.298;2024-01-16T08:55:48;3.30;97.20
33827;DHT22;20128;45.582;5.298;2024-01-16T08:58:14;3.30;97.30
33827;DHT22;20128;45.582;5.298;2024-01-16T09:00:40;3.30;97.30
33827;DHT22;20128;45.582;5.298;2024-01-16T09:03:06;3.20;97.80
33827;DHT22;20128;45.582;5.298;2024-01-16T09:05:33;3.10;97.60
33827;DHT22;20128;45.582;5.298;2024-01-16T09:08:01;3.10;97.70
33827;DHT22;20128;45.582;5.298;2024-01-16T09:10:28;3.10;97.80
33827;DHT22;20128;45.582;5.298;2024-01-16T09:12:54;3.10;97.90
33827;DHT22;20128;45.582;5.298;2024-01-16T09:15:20;3.10;97.90
33827;DHT22;20128;45.582;5.298;2024-01-16T09:17:46;3.10;98.00
33827;DHT22;20128;45.582;5.298;2024-01-16T09:20:12;3.20;98.00
33827;DHT22;20128;45.582;5.298;2024-01-16T09:22:37;3.30;97.80
33827;DHT22;20128;45.582;5.298;2024-01-16T09:25:03;3.30;97.80
33827;DHT22;20128;45.582;5.298;2024-01-16T09:27:31;3.30;97.80
33827;DHT22;20128;45.582;5.298;2024-01-16T09:29:56;3.30;97.90
33827;DHT22;20128;45.582;5.298;2024-01-16T09:32:22;3.40;97.90
33827;DHT22;20128;45.582;5.298;2024-01-16T09:34:48;3.40;97.90
33827;DHT22;20128;45.582;5.298;2024-01-16T09:37:14;3.50;97.90
33827;DHT22;20128;45.582;5.298;2024-01-16T09:39:40;3.50;97.80
33827;DHT22;20128;45.582;5.298;2024-01-16T09:42:07;3.50;97.70
33827;DHT22;20128;45.582;5.298;2024-01-16T09:44:32;3.60;97.70
33827;DHT22;20128;45.582;5.298;2024-01-16T09:47:01;3.60;97.70
33827;DHT22;20128;45.582;5.298;2024-01-16T09:49:29;3.50;97.70
33827;DHT22;20128;45.582;5.298;2024-01-16T09:51:55;3.60;97.70
33827;DHT22;20128;45.582;5.298;2024-01-16T09:54:21;3.60;97.70
33827;DHT22;20128;45.582;5.298;2024-01-16T09:56:49;3.60;97.80
33827;DHT22;20128;45.582;5.298;2024-01-16T09:59:17;3.70;97.70
33827;DHT22;20128;45.582;5.298;2024-01-16T10:01:46;3.60;97.60
33827;DHT22;20128;45.582;5.298;2024-01-16T10:04:13;3.60;97.70
33827;DHT22;20128;45.582;5.298;2024-01-16T10:06:39;3.60;97.70
33827;DHT22;20128;45.582;5.298;2024-01-16T10:09:04;3.70;97.50
33827;DHT22;20128;45.582;5.298;2024-01-16T10:11:33;3.70;97.50
33827;DHT22;20128;45.582;5.298;2024-01-16T10:13:59;3.70;97.30
33827;DHT22;20128;45.582;5.298;2024-01-16T10:17:03;3.60;97.10
33827;DHT22;20128;45.582;5.298;2024-01-16T10:19:50;3.60;97.00
33827;DHT22;20128;45.582;5.298;2024-01-16T10:22:23;3.60;97.20
33827;DHT22;20128;45.582;5.298;2024-01-16T10:25:23;3.60;97.40
33827;DHT22;20128;45.582;5.298;2024-01-16T10:27:45;3.60;97.60
33827;DHT22;20128;45.582;5.298;2024-01-16T10:30:11;3.50;97.70
33827;DHT22;20128;45.582;5.298;2024-01-16T10:32:38;3.60;97.80
33827;DHT22;20128;45.582;5.298;2024-01-16T10:35:11;3.70;97.80
33827;DHT22;20128;45.582;5.298;2024-01-16T10:37:45;3.70;97.80
33827;DHT22;20128;45.582;5.298;2024-01-16T10:40:15;3.60;97.80
33827;DHT22;20128;45.582;5.298;2024-01-16T10:42:41;3.60;97.80
33827;DHT22;20128;45.582;5.298;2024-01-16T10:45:07;3.60;97.70
33827;DHT22;20128;45.582;5.298;2024-01-16T10:47:32;3.60;97.70
33827;DHT22;20128;45.582;5.298;2024-01-16T10:50:03;3.60;97.80
33827;DHT22;20128;45.582;5.298;2024-01-16T10:52:30;3.60;98.00
33827;DHT22;20128;45.582;5.298;2024-01-16T10:55:00;3.60;98.10
33827;DHT22;20128;45.582;5.298;2024-01-16T10:57:31;3.70;98.10
33827;DHT22;20128;45.582;5.298;2024-01-16T11:00:03;3.70;98.10
33827;DHT22;20128;45.582;5.298;2024-01-16T11:02:43;3.70;98.20
33827;DHT22;20128;45.582;5.298;2024-01-16T11:05:12;3.80;98.20
33827;DHT22;20128;45.582;5.298;2024-01-16T11:07:37;3.80;98.10
33827;DHT22;20128;45.582;5.298;2024-01-16T11:10:06;3.80;98.10
33827;DHT22;20128;45.582;5.298;2024-01-16T11:12:32;3.90;98.20
33827;DHT22;20128;45.582;5.298;2024-01-16T11:15:00;3.90;98.20
33827;DHT22;20128;45.582;5.298;2024-01-16T11:17:28;3.90;98.00
33827;DHT22;20128;45.582;5.298;2024-01-16T11:19:55;3.90;97.80
33827;DHT22;20128;45.582;5.298;2024-01-16T11:22:21;3.90;97.80
33827;DHT22;20128;45.582;5.298;2024-01-16T11:25:08;3.80;98.10
33827;DHT22;20128;45.582;5.298;2024-01-16T11:27:35;3.90;98.00
33827;DHT22;20128;45.582;5.298;2024-01-16T11:30:00;3.90;98.10
33827;DHT22;20128;45.582;5.298;2024-01-16T11:32:37;3.90;98.40
33827;DHT22;20128;45.582;5.298;2024-01-16T11:35:06;4.00;98.50
33827;DHT22;20128;45.582;5.298;2024-01-16T11:37:33;3.90;98.50
33827;DHT22;20128;45.582;5.298;2024-01-16T11:42:44;4.00;98.30
33827;DHT22;20128;45.582;5.298;2024-01-16T11:48:13;4.00;98.50
33827;DHT22;20128;45.582;5.298;2024-01-16T11:50:39;4.00;98.50
33827;DHT22;20128;45.582;5.298;2024-01-16T11:53:05;4.00;98.60
33827;DHT22;20128;45.582;5.298;2024-01-16T11:55:31;4.10;98.60
33827;DHT22;20128;45.582;5.298;2024-01-16T12:00:45;4.10;98.20
33827;DHT22;20128;45.582;5.298;2024-01-16T12:03:14;4.10;98.30
33827;DHT22;20128;45.582;5.298;2024-01-16T12:05:42;4.10;98.40
33827;DHT22;20128;45.582;5.298;2024-01-16T12:08:09;4.10;98.50
33827;DHT22;20128;45.582;5.298;2024-01-16T12:10:46;4.10;98.40
33827;DHT22;20128;45.582;5.298;2024-01-16T12:13:14;4.10;98.40
33827;DHT22;20128;45.582;5.298;2024-01-16T12:15:41;4.20;98.50
33827;DHT22;20128;45.582;5.298;2024-01-16T12:18:07;4.20;98.60
33827;DHT22;20128;45.582;5.298;2024-01-16T12:20:35;4.20;98.60
33827;DHT22;20128;45.582;5.298;2024-01-16T12:23:07;4.30;98.70
33827;DHT22;20128;45.582;5.298;2024-01-16T12:25:36;4.30;98.50
33827;DHT22;20128;45.582;5.298;2024-01-16T12:28:06;4.30;98.60
33827;DHT22;20128;45.582;5.298;2024-01-16T12:30:34;4.30;98.40
33827;DHT22;20128;45.582;5.298;2024-01-16T12:38:20;4.30;98.70
33827;DHT22;20128;45.582;5.298;2024-01-16T12:40:49;4.40;98.80
33827;DHT22;20128;45.582;5.298;2024-01-16T12:43:19;4.40;98.90
33827;DHT22;20128;45.582;5.298;2024-01-16T12:45:45;4.60;98.90
33827;DHT22;20128;45.582;5.298;2024-01-16T12:48:11;4.60;98.80
33827;DHT22;20128;45.582;5.298;2024-01-16T12:50:37;4.50;98.80
33827;DHT22;20128;45.582;5.298;2024-01-16T12:53:04;4.60;98.90
33827;DHT22;20128;45.582;5.298;2024-01-16T12:55:34;4.60;98.90
33827;DHT22;20128;45.582;5.298;2024-01-16T12:58:18;4.60;98.70
33827;DHT22;20128;45.582;5.298;2024-01-16T13:00:45;4.60;98.40
33827;DHT22;20128;45.582;5.298;2024-01-16T13:03:18;4.60;98.40
33827;DHT22;20128;45.582;5.298;2024-01-16T13:05:45;4.60;98.60
33827;DHT22;20128;45.582;5.298;2024-01-16T13:08:19;4.70;98.50
33827;DHT22;20128;45.582;5.298;2024-01-16T13:10:46;4.60;98.50
33827;DHT22;20128;45.582;5.298;2024-01-16T13:15:43;4.70;98.50
33827;DHT22;20128;45.582;5.298;2024-01-16T13:18:22;4.70;98.50
33827;DHT22;20128;45.582;5.298;2024-01-16T13:20:58;4.70;98.70
33827;DHT22;20128;45.582;5.298;2024-01-16T13:23:25;4.70;98.90
33827;DHT22;20128;45.582;5.298;2024-01-16T13:25:51;4.70;99.00
33827;DHT22;20128;45.582;5.298;2024-01-16T13:28:19;4.70;99.00
33827;DHT22;20128;45.582;5.298;2024-01-16T13:30:47;4.70;99.00
33827;DHT22;20128;45.582;5.298;2024-01-16T13:33:13;4.70;99.10
33827;DHT22;20128;45.582;5.298;2024-01-16T13:35:45;4.70;99.20
33827;DHT22;20128;45.582;5.298;2024-01-16T13:38:15;4.70;99.30
33827;DHT22;20128;45.582;5.298;2024-01-16T13:40:44;4.70;99.30
33827;DHT22;20128;45.582;5.298;2024-01-16T13:43:10;4.70;99.40
33827;DHT22;20128;45.582;5.298;2024-01-16T13:45:37;4.70;99.40
33827;DHT22;20128;45.582;5.298;2024-01-16T13:48:04;4.70;99.40
33827;DHT22;20128;45.582;5.298;2024-01-16T13:50:31;4.70;99.50
33827;DHT22;20128;45.582;5.298;2024-01-16T13:52:57;4.80;99.50
33827;DHT22;20128;45.582;5.298;2024-01-16T13:55:24;4.80;99.40
33827;DHT22;20128;45.582;5.298;2024-01-16T13:57:49;4.80;99.30
33827;DHT22;20128;45.582;5.298;2024-01-16T14:00:15;4.80;99.60
33827;DHT22;20128;45.582;5.298;2024-01-16T14:02:44;4.80;99.40
33827;DHT22;20128;45.582;5.298;2024-01-16T14:05:17;4.90;99.60
33827;DHT22;20128;45.582;5.298;2024-01-16T14:07:47;4.90;99.60
33827;DHT22;20128;45.582;5.298;2024-01-16T14:10:14;5.00;99.70
33827;DHT22;20128;45.582;5.298;2024-01-16T14:12:41;5.00;99.70
33827;DHT22;20128;45.582;5.298;2024-01-16T14:15:14;5.00;99.80
33827;DHT22;20128;45.582;5.298;2024-01-16T14:17:47;5.10;99.80
33827;DHT22;20128;45.582;5.298;2024-01-16T14:20:14;5.10;99.80
33827;DHT22;20128;45.582;5.298;2024-01-16T14:22:40;5.10;99.70
33827;DHT22;20128;45.582;5.298;2024-01-16T14:25:07;5.20;99.80
33827;DHT22;20128;45.582;5.298;2024-01-16T14:27:39;5.10;99.60
33827;DHT22;20128;45.582;5.298;2024-01-16T14:30:14;5.20;99.70
33827;DHT22;20128;45.582;5.298;2024-01-16T14:32:44;5.20;99.70
33827;DHT22;20128;45.582;5.298;2024-01-16T14:35:12;5.20;99.70
33827;DHT22;20128;45.582;5.298;2024-01-16T14:37:39;5.20;99.50
33827;DHT22;20128;45.582;5.298;2024-01-16T14:40:06;5.10;99.50
33827;DHT22;20128;45.582;5.298;2024-01-16T14:42:33;5.10;99.70
33827;DHT22;20128;45.582;5.298;2024-01-16T14:44:59;5.20;99.70
33827;DHT22;20128;45.582;5.298;2024-01-16T14:47:25;5.20;99.90
33827;DHT22;20128;45.582;5.298;2024-01-16T14:49:51;5.20;99.80
33827;DHT22;20128;45.582;5.298;2024-01-16T14:52:18;5.20;99.80
33827;DHT22;20128;45.582;5.298;2024-01-16T14:54:44;5.20;99.80
33827;DHT22;20128;45.582;5.298;2024-01-16T14:57:10;5.20;99.90
33827;DHT22;20128;45.582;5.298;2024-01-16T14:59:37;5.20;99.90
33827;DHT22;20128;45.582;5.298;2024-01-16T15:02:03;5.10;99.90
33827;DHT22;20128;45.582;5.298;2024-01-16T15:04:38;5.10;99.90
33827;DHT22;20128;45.582;5.298;2024-01-16T15:07:04;5.10;99.90
33827;DHT22;20128;45.582;5.298;2024-01-16T15:09:30;5.20;99.90
33827;DHT22;20128;45.582;5.298;2024-01-16T15:12:00;5.20;99.90
33827;DHT22;20128;45.582;5.298;2024-01-16T15:14:26;5.20;99.90
33827;DHT22;20128;45.582;5.298;2024-01-16T15:16:52;5.30;99.90
33827;DHT22;20128;45.582;5.298;2024-01-16T15:19:18;5.30;99.90
33827;DHT22;20128;45.582;5.298;2024-01-16T15:21:43;5.30;99.90
33827;DHT22;20128;45.582;5.298;2024-01-16T15:24:09;5.40;99.90
33827;DHT22;20128;45.582;5.298;2024-01-16T15:26:38;5.40;99.90
33827;DHT22;20128;45.582;5.298;2024-01-16T15:29:04;6.20;99.90
33827;DHT22;20128;45.582;5.298;2024-01-16T15:31:31;6.30;99.90
33827;DHT22;20128;45.582;5.298;2024-01-16T15:33:57;6.10;99.90
33827;DHT22;20128;45.582;5.298;2024-01-16T15:36:22;6.00;99.90
33827;DHT22;20128;45.582;5.298;2024-01-16T15:38:48;5.80;99.90
33827;DHT22;20128;45.582;5.298;2024-01-16T15:41:14;5.70;99.90
33827;DHT22;20128;45.582;5.298;2024-01-16T15:43:39;5.60;99.90
33827;DHT22;20128;45.582;5.298;2024-01-16T15:46:05;5.60;99.90
33827;DHT22;20128;45.582;5.298;2024-01-16T15:48:31;5.60;99.90
33827;DHT22;20128;45.582;5.298;2024-01-16T15:50:59;5.60;99.90
33827;DHT22;20128;45.582;5.298;2024-01-16T15:53:25;5.60;99.90
33827;DHT22;20128;45.582;5.298;2024-01-16T15:55:50;5.60;99.90
33827;DHT22;20128;45.582;5.298;2024-01-16T15:58:17;5.60;99.90